Tiempo atmosférico en la estación meteorológica de Zafra, Badajoz (433 m.)



Fecha
DESCASC
Temp. máxima en grados centígrados (hora)
DESCASC
Temp. mínima en grados centígrados (hora)
DESCASC
Temp. media en grados centígrados
DESCASC
Racha de viento máxima en m/sg (hora)
DESCASC
Velocidad máxima media en intervalos de 10 minutos(hora)
DESCASC
Precipitaciones diarias en mm
DESCASC
Precipitaciones de 00:00 a 06:00 en mm
DESCASC
Precipitaciones de 06:00 a 12:00 en mm
DESCASC
Precipitaciones de 12:00 a 18:00 en mm
DESCASC
Precipitaciones de 18:00 a 24:00 en mm
DESCASC
02-04-2020 15.9 (18:40) 4.9 (06:40) 10.4 7.22 (15:50) 4.44 (11:20) 1.2 1.2 0 0 0
01-04-2020 14 (14:50) 2.5 (07:40) 8.3 10.28 (15:30) 5.28 (19:10) 3.2 0 0 0.8 2.4
31-03-2020 14.9 (17:30) 8.3 (00:00) 11.6 11.11 (14:40) 6.11 (14:50) 12.4 5.6 3.2 3.6 0
30-03-2020 15.2 (14:20) 6.5 (00:00) 10.8 10.83 (17:20) 6.11 (17:10) 2 0 0 1.6 0.4
29-03-2020 19.5 (15:40) 5.5 (00:00) 12.5 5 (16:20) 3.61 (21:30) 0 0 0 0 0
28-03-2020 17.6 (15:50) 0.9 (00:00) 9.3 9.17 (15:30) 3.61 (13:40) 0 0 0 0 0
27-03-2020 13.7 (16:40) 4.1 (00:00) 8.9 6.67 (16:50) 3.33 (13:10) 0 0 0 0 0
26-03-2020 18.9 (15:00) 7.5 (00:00) 13.2 11.11 (17:20) 6.94 (17:50) 0 0 0 0 0
25-03-2020 19.3 (16:50) 6.5 (00:00) 12.9 7.78 (23:20) 3.89 (16:30) 0 0 0 0 0
24-03-2020 17.8 (13:50) 6 (00:00) 11.9 10.28 (13:20) 5 (10:30) 0.2 0.2 0 0 0
23-03-2020 15.8 (15:20) 5.7 (00:00) 10.8 12.22 (16:00) 6.67 (16:10) 0.6 0 0 0 0.6
22-03-2020 15 (17:50) 6.2 (07:30) 10.6 8.06 (12:40) 3.89 (20:10) 0.8 0.4 0 0.2 0.2
21-03-2020 13.4 (13:40) 7.3 (00:00) 10.3 12.5 (14:10) 7.78 (14:10) 15.2 13.2 0 0.6 1.4
20-03-2020 15.6 (14:20) 9.4 (00:00) 12.5 10 (16:20) 5.28 (16:20) 23.2 0 0 1.6 21.6
19-03-2020 20 (16:20) 5.8 (00:00) 12.9 6.11 (10:40) 3.61 (10:40) 0 0 0 0 0
18-03-2020 21.5 (17:00) 8.6 (00:00) 15.1 9.17 (13:10) 5.28 (13:10) 0 0 0 0 0
17-03-2020 16.9 (17:50) 4.2 (00:00) 10.5 12.22 (12:50) 7.78 (12:50) 1.4 0.8 0.6 0 0
16-03-2020 12 (13:50) 3.6 (00:00) 7.8 15.56 (15:20) 10.28 (15:50) 4.2 0 0 0.6 3.6
15-03-2020 21.8 (14:50) 8.8 (00:00) 15.3 12.5 (21:50) 8.33 (22:00) 0 0 0 0 0
14-03-2020 23.9 (16:40) 7.5 (00:00) 15.7 8.33 (18:20) 4.72 (18:00) 0 0 0 0 0
13-03-2020 21 (15:40) 9.1 (03:30) 15.1 6.39 (16:00) 4.72 (16:00) 0 0 0 0 0
12-03-2020 25.1 (14:50) 10 (00:00) 17.6 10.83 (14:40) 5.56 (15:00) 0 0 0 0 0
11-03-2020 28.1 (14:20) 7.9 (00:00) 18 8.33 (12:20) 5.28 (11:50) 0 0 0 0 0
10-03-2020 27.3 (16:40) 4 (00:00) 15.6 4.72 (12:20) 3.33 (10:20) 0 0 0 0 0
09-03-2020 20.5 (17:00) 4 (00:00) 12.3 10.83 (17:20) 6.39 (16:30) 0 0 0 0 0
08-03-2020 20.2 (14:30) 0.9 (00:00) 10.6 8.06 (17:20) 5.56 (17:20) 0 0 0 0 0
07-03-2020 18.7 (16:40) 1.8 (00:00) 10.3 7.5 (02:00) 5.83 (02:00) 0 0 0 0 0
06-03-2020 15.2 (16:00) 7 (00:00) 11.1 13.61 (15:20) 8.61 (10:10) 0 0 0 0 0
05-03-2020 15.7 (15:10) 8.4 (00:00) 12 12.78 (15:20) 8.61 (16:10) 0.8 0 0.8 0 0

Gráficas

Temp. máximas Temp. mínimas Temp. medias Precipitaciones Rachas de viento máximas Velocidades máximas media en intervalos de 10 minutos

Datos horarios

Fecha y hora oficial Temperatura (ºC) Velocidad del viento (km/h) Dirección del viento Racha (km/h) Dirección de racha Precipitación (mm) Presión (hPa) Tendencia (hPa) Humedad (%)
2020-04-03 23:00:00 10.9 7 Sur 10 Sur 0 -- -- 83
2020-04-03 22:00:00 12.1 6 Sur 8 Sur 0 -- -- 79
2020-04-03 21:00:00 15.2 6 Sur 9 Sudeste 0 -- -- 66
2020-04-03 20:00:00 18.3 4 Sudeste 17 Este 0 -- -- 52
2020-04-03 19:00:00 19 9 Sudeste 16 Sudeste 0 -- -- 45
2020-04-03 18:00:00 19.7 8 Sudeste 15 Sudeste 0 -- -- 40
2020-04-03 17:00:00 20.1 10 Sur 21 Sur 0 -- -- 40
2020-04-03 16:00:00 20.7 8 Sur 21 Sudeste 0 -- -- 40
2020-04-03 15:00:00 19.9 8 Sudeste 18 Sudeste 0 -- -- 40
2020-04-03 14:00:00 19 6 Sudoeste 18 Sur 0 -- -- 44
2020-04-03 13:00:00 17.8 7 Sudeste 14 Sudeste 0 -- -- 54
2020-04-03 12:00:00 15.8 5 Sudeste 12 Sudeste 0 -- -- 61
2020-04-03 11:00:00 13.4 4 Sur 8 Sudeste 0 -- -- 75
2020-04-03 10:00:00 9.8 6 Sudeste 10 Sudeste 0 -- -- 88
2020-04-03 09:00:00 5.8 8 Sudeste 10 Sur 0 -- -- 95
2020-04-03 08:00:00 5 8 Sur 12 Sur 0 -- -- 95
2020-04-03 07:00:00 5.1 8 Sur 10 Sur 0 -- -- 95
2020-04-03 06:00:00 5.8 5 Sur 10 Sur 0 -- -- 95
2020-04-03 05:00:00 5.6 9 Sudeste 13 Sur 0 -- -- 94
2020-04-03 04:00:00 7 3 Sudeste 8 Este 0 -- -- 91
2020-04-03 03:00:00 6.5 3 Sudeste 9 Sudeste 0 -- -- 93
2020-04-03 02:00:00 6.8 3 Sudeste 6 Sudeste 0 -- -- 91
2020-04-03 01:00:00 7.2 4 Sudeste 6 Sudeste 0 -- -- 90
2020-04-03 00:00:00 7.5 5 Sudeste 9 Sudeste 0 -- -- 88
2020-04-02 23:00:00 8.1 5 Sudeste 7 Sudeste 0 -- -- 87
2020-04-02 22:00:00 9.4 0 Calma 4 Sudeste 0 -- -- 84
2020-04-02 21:00:00 11.8 2 Norte 17 Noroeste 0 -- -- 74
2020-04-02 20:00:00 15 13 Noroeste 21 Noroeste 0 -- -- 57
2020-04-02 19:00:00 15.9 12 Noroeste 22 Norte 0 -- -- 54
2020-04-02 18:00:00 15.5 8 Norte 23 Norte 0 -- -- 59
2020-04-02 17:00:00 15 12 Norte 26 Norte 0 -- -- 58
2020-04-02 16:00:00 14.4 12 Norte 26 Noroeste 0 -- -- 59
2020-04-02 15:00:00 12.9 10 Norte 22 Noroeste 0 -- -- 63
2020-04-02 14:00:00 11.4 13 Norte 22 Norte 0 -- -- 72
2020-04-02 13:00:00 10.3 11 Norte 23 Norte 0 -- -- 76
2020-04-02 12:00:00 9.2 15 Noroeste 23 Noroeste 0 -- -- 86
2020-04-02 11:00:00 8.9 12 Norte 17 Noroeste 0 -- -- 94
2020-04-02 10:00:00 6.9 7 Noroeste 12 Noroeste 0 -- -- 98
2020-04-02 09:00:00 6.1 8 Noroeste 14 Noroeste 0 -- -- 97
2020-04-02 08:00:00 5.7 8 Noroeste 9 Noroeste 0 -- -- 97
2020-04-02 07:00:00 5.7 4 Noroeste 9 Noroeste 0 -- -- 97
2020-04-02 06:00:00 5.4 3 Este 6 Este 0 -- -- 96
2020-04-02 05:00:00 6 3 Sudeste 6 Este 0 -- -- 94
2020-04-02 04:00:00 7.4 5 Sudoeste 15 Oeste 0 -- -- 91
2020-04-02 03:00:00 8.7 5 Sudoeste 16 Oeste 0.2 -- -- 89
2020-04-02 02:00:00 8.6 3 Oeste 10 Sur 0.6 -- -- 93
2020-04-02 01:00:00 8.5 3 Sur 20 Sudeste 0.4 -- -- 93
2020-04-02 00:00:00 8.8 6 Sudeste 26 Sur 1.4 -- -- 91
2020-04-01 23:00:00 9.1 9 Sudeste 14 Sudeste 0.6 -- -- 89
2020-04-01 22:00:00 9.2 11 Sudeste 19 Sudeste 0 -- -- 85
2020-04-01 21:00:00 9.5 10 Sur 26 Sur 0.4 -- -- 83
2020-04-01 20:00:00 11.2 14 Sur 29 Sur 0 -- -- 67
2020-04-01 19:00:00 11.3 17 Sur 31 Sur 0 -- -- 66
2020-04-01 18:00:00 11.5 10 Sur 28 Sudeste 0 -- -- 66
2020-04-01 17:00:00 11 14 Sur 28 Sur 0 -- -- 71
2020-04-01 16:00:00 9.7 4 Sur 37 Sudoeste 0.8 -- -- 79
2020-04-01 15:00:00 13.4 12 Sudoeste 25 Sur 0 -- -- 56
2020-04-01 14:00:00 12 8 Sur 25 Sudoeste 0 -- -- 56
2020-04-01 13:00:00 11.2 15 Sur 27 Sudoeste 0 -- -- 61
2020-04-01 12:00:00 11.7 10 Sudoeste 20 Sur 0 -- -- 60
2020-04-01 11:00:00 10.1 9 Sudeste 17 Sudeste 0 -- -- 66
2020-04-01 10:00:00 6.9 12 Sudeste 18 Sudeste 0 -- -- 87
2020-04-01 09:00:00 3.8 5 Sur 9 Sudeste 0 -- -- 96
2020-04-01 08:00:00 2.8 5 Sudeste 9 Sudeste 0 -- -- 96
2020-04-01 07:00:00 2.8 5 Sudeste 9 Sudeste 0 -- -- 95
2020-04-01 06:00:00 3.7 4 Sudeste 8 Sudeste 0 -- -- 93
2020-04-01 05:00:00 6 3 Sudoeste 10 Sudoeste 0 -- -- 86
2020-04-01 04:00:00 6.8 4 Sudoeste 15 Sudoeste 0 -- -- 85
2020-04-01 03:00:00 7.3 4 Sudoeste 10 Sudoeste 0 -- -- 81
2020-04-01 02:00:00 7.8 6 Sudeste 13 Sudeste 0 -- -- 87
2020-04-01 01:00:00 7.4 3 Nordeste 12 Sur 0 -- -- 89
2020-04-01 00:00:00 8.5 5 Sur 14 Sudoeste 0 -- -- 83
2020-03-31 23:00:00 9 7 Oeste 18 Sudoeste 0 -- -- 78
2020-03-31 22:00:00 9.2 5 Oeste 14 Oeste 0 -- -- 80
2020-03-31 21:00:00 10.2 4 Sur 14 Noroeste 0 -- -- 82
2020-03-31 20:00:00 11.7 11 Noroeste 28 Noroeste 0 -- -- 73
2020-03-31 19:00:00 13.7 11 Oeste 31 Oeste 0 -- -- 68
2020-03-31 18:00:00 13.8 19 Oeste 37 Oeste 0 -- -- 68
2020-03-31 17:00:00 14.2 11 Sudoeste 26 Sudoeste 0.2 -- -- 77
2020-03-31 16:00:00 13 5 Noroeste 35 Sur 0.2 -- -- 81
2020-03-31 15:00:00 13.8 13 Sur 40 Sur 2.8 -- -- 75
2020-03-31 14:00:00 13.3 14 Sur 31 Sur 0.4 -- -- 78
2020-03-31 13:00:00 13 17 Sudeste 32 Sur 0 -- -- 78
2020-03-31 12:00:00 11.7 12 Sudeste 23 Sur 0 -- -- 85
2020-03-31 11:00:00 11 11 Sudeste 21 Sur 0 -- -- 85
2020-03-31 10:00:00 10.7 10 Sur 16 Sudeste 0 -- -- 89
2020-03-31 09:00:00 9 3 Sur 7 Sur 0.2 -- -- 96
2020-03-31 08:00:00 9.2 0 Calma 5 Sur 0.6 -- -- 96
2020-03-31 07:00:00 9.2 5 Sur 16 Sudeste 2.4 -- -- 95
2020-03-31 06:00:00 9.4 10 Sudeste 20 Sudeste 2.6 -- -- 95
2020-03-31 05:00:00 9.4 16 Sudeste 33 Sudeste 1.8 -- -- 93
2020-03-31 04:00:00 9.5 15 Sudeste 26 Este 0.8 -- -- 93
2020-03-31 03:00:00 9.5 13 Sudeste 21 Sudeste 0 -- -- 91
2020-03-31 02:00:00 8.5 0 Calma 8 Noroeste 0 -- -- 94
2020-03-31 01:00:00 8.5 3 Sudeste 6 Sudeste 0.4 -- -- 94
2020-03-31 00:00:00 8.4 4 Norte 8 Sudeste 0 -- -- 92
2020-03-30 23:00:00 8.8 5 Sur 13 Sudeste 0 -- -- 89
2020-03-30 22:00:00 8.9 9 Sudeste 21 Sudeste 0 -- -- 87
2020-03-30 21:00:00 9.8 9 Sudeste 30 Sudeste 0 -- -- 86
2020-03-30 20:00:00 10.5 16 Sudeste 28 Sudeste 0.2 -- -- 84
2020-03-30 19:00:00 9.9 11 Sudeste 22 Sur 0.2 -- -- 88
2020-03-30 18:00:00 9.9 13 Sur 39 Sur 0.8 -- -- 86
2020-03-30 17:00:00 10.7 21 Sur 35 Sur 0.8 -- -- 83
2020-03-30 16:00:00 14.7 5 Oeste 22 Sur 0 -- -- 58
2020-03-30 15:00:00 14.8 10 Sur 25 Sudeste 0 -- -- 61
2020-03-30 14:00:00 14.7 12 Sudeste 18 Sudeste 0 -- -- 64
2020-03-30 13:00:00 14.7 9 Sudeste 15 Sudeste 0 -- -- 70
2020-03-30 12:00:00 13.7 5 Sur 8 Sudeste 0 -- -- 72
2020-03-30 11:00:00 12 3 Sur 15 Sudeste 0 -- -- 83
2020-03-30 10:00:00 9.4 7 Sur 12 Sudeste 0 -- -- 92
2020-03-30 09:00:00 8.4 13 Sudeste 18 Sudeste 0 -- -- 94
2020-03-30 08:00:00 6.7 4 Sur 13 Sur 0 -- -- 95
2020-03-30 07:00:00 6.5 6 Sur 10 Sur 0 -- -- 95
2020-03-30 06:00:00 6.7 6 Sur 9 Sur 0 -- -- 94
2020-03-30 05:00:00 7.1 4 Sudeste 10 Sur 0 -- -- 92
2020-03-30 04:00:00 8.6 4 Sudeste 7 Sur 0 -- -- 90
2020-03-30 03:00:00 9.3 2 Sur 8 Sudeste 0 -- -- 88
2020-03-30 02:00:00 10.9 5 Sudeste 8 Este 0 -- -- 85
2020-03-30 01:00:00 11.8 4 Sudeste 9 Sur 0 -- -- 81
2020-03-30 00:00:00 12.5 6 Sur 14 Sur 0 -- -- 75
2020-03-29 23:00:00 12.9 3 Sur 10 Sur 0 -- -- 74
2020-03-29 22:00:00 13.9 8 Sudoeste 18 Sur 0 -- -- 65
2020-03-29 21:00:00 14.2 4 Sur 16 Oeste 0 -- -- 67
2020-03-29 20:00:00 15.7 5 Noroeste 17 Oeste 0 -- -- 63
2020-03-29 19:00:00 17.3 4 Noroeste 12 Sur 0 -- -- 54
2020-03-29 18:00:00 17.2 5 Sur 11 Sur 0 -- -- 49
2020-03-29 17:00:00 17.9 5 Norte 18 Noroeste 0 -- -- 48
2020-03-29 16:00:00 18.8 7 Oeste 16 Sur 0 -- -- 41
2020-03-29 15:00:00 18.7 8 Oeste 15 Sudoeste 0 -- -- 44
2020-03-29 14:00:00 18.1 8 Sudeste 15 Este 0 -- -- 49
2020-03-29 13:00:00 16.8 7 Sur 12 Sudeste 0 -- -- 53
2020-03-29 12:00:00 16 4 Este 10 Sudeste 0 -- -- 58
2020-03-29 11:00:00 13.7 4 Sudeste 8 Sur 0 -- -- 68
2020-03-29 10:00:00 9.8 5 Sur 10 Sudeste 0 -- -- 85
2020-03-29 09:00:00 5.9 8 Sudeste 10 Sudeste 0 -- -- 93
2020-03-29 08:00:00 6.2 6 Sur 10 Sudeste 0 -- -- 91
2020-03-29 07:00:00 6.9 4 Sudeste 12 Sudeste 0 -- -- 92
2020-03-29 06:00:00 6.2 5 Sur 10 Sudeste 0 -- -- 93
2020-03-29 05:00:00 5.5 8 Sudeste 10 Sudeste 0 -- -- 92
2020-03-29 03:00:00 6 9 Sudeste 12 Sur 0 -- -- 88
2020-03-29 01:00:00 6.8 6 Sur 10 Sur 0 -- -- 85
2020-03-29 00:00:00 6.5 7 Sur 10 Sudeste 0 -- -- 90
2020-03-28 23:00:00 7.1 3 Sur 10 Sur 0 -- -- 88
2020-03-28 22:00:00 8.1 8 Sudeste 11 Sudeste 0 -- -- 85
2020-03-28 21:00:00 9.2 5 Sudeste 8 Sudeste 0 -- -- 82
2020-03-28 20:00:00 12.1 4 Sudeste 10 Este 0 -- -- 71
2020-03-28 19:00:00 16.1 9 Sudeste 14 Sudeste 0 -- -- 48
2020-03-28 18:00:00 16.3 9 Sudeste 21 Este 0 -- -- 49
2020-03-28 17:00:00 16.9 6 Este 15 Sudeste 0 -- -- 46
2020-03-28 16:00:00 17.6 8 Sur 33 Sudeste 0 -- -- 44
2020-03-28 15:00:00 15.7 6 Sudeste 23 Este 0 -- -- 49
2020-03-28 14:00:00 15.6 6 Este 21 Este 0 -- -- 51
2020-03-28 13:00:00 15.5 6 Este 18 Este 0 -- -- 58
2020-03-28 12:00:00 13.8 6 Sur 15 Sudeste 0 -- -- 60
2020-03-28 11:00:00 11.6 8 Sudeste 17 Este 0 -- -- 66
2020-03-28 10:00:00 9.4 7 Este 14 Este 0 -- -- 71
2020-03-28 09:00:00 5.3 4 Sur 10 Sudeste 0 -- -- 86
2020-03-28 08:00:00 2.6 0 Calma 5 Sur 0 -- -- 96
2020-03-28 07:00:00 1.2 3 Sudeste 5 Sudeste 0 -- -- 95
2020-03-28 06:00:00 1.1 3 Sudeste 4 Sudeste 0 -- -- 94
2020-03-28 05:00:00 1.6 3 Sudeste 6 Este 0 -- -- 93
2020-03-28 04:00:00 2.4 3 Sudeste 6 Sudeste 0 -- -- 92
2020-03-28 03:00:00 3 3 Sudeste 6 Sudeste 0 -- -- 89
2020-03-28 02:00:00 4.5 3 Sudeste 13 Sudeste 0 -- -- 85
2020-03-28 01:00:00 6 4 Sur 13 Sudoeste 0 -- -- 80
2020-03-28 00:00:00 7.6 4 Sur 11 Sudeste 0 -- -- 74
2020-03-27 23:00:00 8.4 7 Sudeste 14 Sudeste 0 -- -- 72
2020-03-27 22:00:00 8.2 5 Sudeste 8 Sudeste 0 -- -- 77
2020-03-27 21:00:00 7.7 0 Calma 5 Nordeste 0 -- -- 84
2020-03-27 20:00:00 10.3 2 Nordeste 13 Este 0 -- -- 72
2020-03-27 19:00:00 12.3 7 Este 14 Nordeste 0 -- -- 63
2020-03-27 18:00:00 12.4 7 Nordeste 18 Norte 0 -- -- 64
2020-03-27 17:00:00 12.9 9 Norte 24 Nordeste 0 -- -- 64
2020-03-27 16:00:00 13.3 9 Norte 19 Nordeste 0 -- -- 65
2020-03-27 15:00:00 12.1 3 Este 10 Este 0 -- -- 67
2020-03-27 14:00:00 11.2 9 Nordeste 20 Norte 0 -- -- 71
2020-03-27 13:00:00 11.9 10 Norte 18 Nordeste 0 -- -- 71
2020-03-27 12:00:00 12.2 5 Este 22 Sudoeste 0 -- -- 68
2020-03-27 11:00:00 9.6 8 Sudeste 16 Sur 0 -- -- 78
2020-03-27 10:00:00 7.6 3 Noroeste 7 Noroeste 0 -- -- 87
2020-03-27 09:00:00 6.6 3 Norte 12 Sudoeste 0 -- -- 92
2020-03-27 08:00:00 5.4 6 Sudoeste 14 Sudoeste 0 -- -- 95
2020-03-27 07:00:00 4.9 4 Sudoeste 19 Sudoeste 0 -- -- 94
2020-03-27 06:00:00 4.2 3 Este 16 Sudoeste 0 -- -- 94
2020-03-27 05:00:00 5.3 4 Sur 12 Sur 0 -- -- 95
2020-03-27 04:00:00 5.3 0 Calma 8 Sudeste 0 -- -- 92
2020-03-27 03:00:00 6.9 4 Este 18 Sudoeste 0 -- -- 88
2020-03-27 02:00:00 7.7 7 Sur 15 Sudoeste 0 -- -- 90
2020-03-27 01:00:00 6.9 2 Sudeste 4 Este 0 -- -- 88
2020-03-27 00:00:00 8.7 0 Calma 15 Noroeste 0 -- -- 84
2020-03-26 23:00:00 10.7 6 Noroeste 15 Noroeste 0 -- -- 77
2020-03-26 22:00:00 11.1 6 Oeste 14 Noroeste 0 -- -- 75
2020-03-26 21:00:00 11.9 3 Noroeste 29 Noroeste 0 -- -- 71
2020-03-26 20:00:00 14.5 19 Noroeste 28 Noroeste 0 -- -- 59
2020-03-26 19:00:00 16.2 16 Noroeste 35 Noroeste 0 -- -- 53
2020-03-26 18:00:00 17.7 21 Noroeste 40 Noroeste 0 -- -- 43
2020-03-26 17:00:00 18.7 19 Noroeste 36 Noroeste 0 -- -- 47
2020-03-26 16:00:00 18.7 20 Noroeste 36 Noroeste 0 -- -- 47
2020-03-26 15:00:00 18.9 18 Noroeste 31 Noroeste 0 -- -- 45
2020-03-26 14:00:00 18 10 Sudoeste 27 Sudoeste 0 -- -- 58
2020-03-26 13:00:00 17.4 14 Oeste 23 Sudoeste 0 -- -- 54
2020-03-26 12:00:00 17.1 13 Norte 22 Noroeste 0 -- -- 49
2020-03-26 11:00:00 15.2 7 Noroeste 13 Oeste 0 -- -- 63
2020-03-26 10:00:00 14 3 Sudeste 8 Este 0 -- -- 72
2020-03-26 09:00:00 11.6 4 Este 8 Sudeste 0 -- -- 84
2020-03-26 08:00:00 8.1 5 Sudeste 9 Este 0 -- -- 96
2020-03-26 07:00:00 8.2 6 Este 10 Sudeste 0 -- -- 95
2020-03-26 06:00:00 8.5 3 Sudeste 8 Este 0 -- -- 94
2020-03-26 05:00:00 9.2 5 Sur 10 Sudeste 0 -- -- 95
2020-03-26 04:00:00 9.7 3 Sudeste 9 Sudeste 0 -- -- 93
2020-03-26 03:00:00 10.4 4 Nordeste 11 Este 0 -- -- 91
2020-03-26 02:00:00 12.1 14 Sudoeste 27 Sudoeste 0 -- -- 87
2020-03-26 01:00:00 12.4 15 Sudoeste 26 Sudoeste 0 -- -- 88
2020-03-26 00:00:00 12.8 7 Sudoeste 28 Oeste 0 -- -- 88
2020-03-25 23:00:00 13 12 Sudoeste 27 Sudoeste 0 -- -- 87
2020-03-25 22:00:00 12.7 5 Oeste 12 Oeste 0 -- -- 77
2020-03-25 21:00:00 11.9 0 Calma 4 Este 0 -- -- 79
2020-03-25 20:00:00 14.3 3 Norte 9 Noroeste 0 -- -- 69
2020-03-25 19:00:00 17.3 7 Noroeste 19 Noroeste 0 -- -- 56
2020-03-25 18:00:00 18.8 10 Noroeste 20 Noroeste 0 -- -- 46
2020-03-25 17:00:00 19.1 12 Norte 25 Noroeste 0 -- -- 46
2020-03-25 16:00:00 18.6 12 Noroeste 24 Noroeste 0 -- -- 50
2020-03-25 15:00:00 18.9 8 Noroeste 21 Norte 0 -- -- 43
2020-03-25 14:00:00 18.2 8 Oeste 17 Noroeste 0 -- -- 48
2020-03-25 13:00:00 17.5 7 Noroeste 16 Norte 0 -- -- 49
2020-03-25 12:00:00 16.6 9 Norte 16 Norte 0 -- -- 58
2020-03-25 11:00:00 15.8 4 Sudeste 13 Sudeste 0 -- -- 62
2020-03-25 10:00:00 13.1 8 Sudeste 14 Sudeste 0 -- -- 69
2020-03-25 09:00:00 9.8 7 Sur 11 Sur 0 -- -- 85
2020-03-25 08:00:00 7.6 3 Sudeste 6 Este 0 -- -- 95
2020-03-25 07:00:00 7.8 0 Calma 4 Sudeste 0 -- -- 95
2020-03-25 06:00:00 7.2 0 Calma 5 Sur 0 -- -- 94
2020-03-25 05:00:00 6.6 0 Calma 4 Este 0 -- -- 93
2020-03-25 04:00:00 7.6 2 Noroeste 6 Sudeste 0 -- -- 91
2020-03-25 03:00:00 9 3 Sur 6 Sudeste 0 -- -- 87
2020-03-25 02:00:00 10.2 5 Sur 10 Sur 0 -- -- 81
2020-03-25 01:00:00 10.2 3 Oeste 13 Sur 0 -- -- 81
2020-03-25 00:00:00 10.7 0 Calma 12 Sudoeste 0 -- -- 77
2020-03-24 23:00:00 11.8 4 Oeste 13 Nordeste 0 -- -- 73
2020-03-24 22:00:00 12.5 3 Nordeste 17 Nordeste 0 -- -- 70
2020-03-24 21:00:00 13.7 3 Norte 15 Nordeste 0 -- -- 68
2020-03-24 20:00:00 14.9 7 Nordeste 18 Nordeste 0 -- -- 65
2020-03-24 19:00:00 15.5 8 Nordeste 22 Nordeste 0 -- -- 63
2020-03-24 18:00:00 16.4 12 Nordeste 25 Nordeste 0 -- -- 60
2020-03-24 17:00:00 16.6 13 Nordeste 26 Nordeste 0 -- -- 59
2020-03-24 16:00:00 16.1 14 Nordeste 28 Nordeste 0 -- -- 60
2020-03-24 15:00:00 16.7 15 Nordeste 27 Nordeste 0 -- -- 55
2020-03-24 14:00:00 17.3 12 Nordeste 37 Nordeste 0 -- -- 54
2020-03-24 13:00:00 17 15 Nordeste 33 Nordeste 0 -- -- 55
2020-03-24 12:00:00 15.6 13 Nordeste 31 Nordeste 0 -- -- 59
2020-03-24 11:00:00 13.7 13 Nordeste 31 Nordeste 0 -- -- 69
2020-03-24 10:00:00 12.7 13 Nordeste 23 Nordeste 0 -- -- 77
2020-03-24 09:00:00 9.4 6 Noroeste 18 Nordeste 0 -- -- 98
2020-03-24 08:00:00 6.9 10 Noroeste 13 Noroeste 0 -- -- 98
2020-03-24 07:00:00 6.6 6 Noroeste 9 Noroeste 0 -- -- 97
2020-03-24 06:00:00 6.2 6 Noroeste 8 Noroeste 0 -- -- 96
2020-03-24 05:00:00 6.7 7 Norte 15 Norte 0 -- -- 96
2020-03-24 04:00:00 7.3 8 Noroeste 16 Oeste 0 -- -- 95
2020-03-24 03:00:00 7.3 8 Noroeste 11 Noroeste 0.2 -- -- 95
2020-03-24 02:00:00 7.8 5 Norte 8 Norte 0 -- -- 96
2020-03-24 01:00:00 8 0 Calma 4 Noroeste 0 -- -- 94
2020-03-24 00:00:00 8.9 3 Sudeste 15 Sudeste 0 -- -- 91
2020-03-23 23:00:00 9.6 10 Sudeste 27 Sudeste 0.6 -- -- 90
2020-03-23 22:00:00 9.4 6 Norte 12 Noroeste 0 -- -- 89
2020-03-23 21:00:00 8.9 0 Calma 5 Norte 0 -- -- 84
2020-03-23 20:00:00 11.6 0 Calma 11 Nordeste 0 -- -- 71
2020-03-23 19:00:00 13.4 6 Nordeste 19 Nordeste 0 -- -- 62
2020-03-23 18:00:00 14.5 11 Nordeste 21 Nordeste 0 -- -- 59
2020-03-23 17:00:00 12.9 10 Sudeste 38 Este 0 -- -- 67
2020-03-23 16:00:00 15 15 Este 44 Este 0 -- -- 52
2020-03-23 15:00:00 15.1 13 Norte 22 Este 0 -- -- 56
2020-03-23 14:00:00 14.6 8 Norte 22 Este 0 -- -- 60
2020-03-23 13:00:00 14.5 10 Este 23 Nordeste 0 -- -- 60
2020-03-23 12:00:00 13.9 10 Este 22 Nordeste 0 -- -- 63
2020-03-23 11:00:00 12.6 11 Este 20 Este 0 -- -- 68
2020-03-23 10:00:00 10.8 7 Este 13 Nordeste 0 -- -- 78
2020-03-23 09:00:00 7.9 3 Noroeste 5 Oeste 0 -- -- 96
2020-03-23 08:00:00 5.7 4 Sudeste 5 Sudeste 0 -- -- 95
2020-03-23 07:00:00 7.3 0 Calma 6 Este 0 -- -- 92
2020-03-23 06:00:00 9 4 Sudeste 6 Sudeste 0 -- -- 94
2020-03-23 05:00:00 9 2 Sudeste 6 Sur 0 -- -- 95
2020-03-23 04:00:00 8.7 2 Sur 7 Sur 0 -- -- 95
2020-03-23 03:00:00 8.7 4 Sudeste 5 Sudeste 0 -- -- 94
2020-03-23 02:00:00 9.2 0 Calma 2 Este 0 -- -- 94
2020-03-23 01:00:00 9.5 0 Calma 5 Sudeste 0 -- -- 92
2020-03-23 00:00:00 9.6 0 Calma 3 Sur 0 -- -- 92
2020-03-22 23:00:00 9.7 0 Calma 5 Noroeste 0.2 -- -- 90
2020-03-22 22:00:00 10.2 0 Calma 5 Noroeste 0 -- -- 82
2020-03-22 21:00:00 10.7 0 Calma 23 Nordeste 0 -- -- 76
2020-03-22 20:00:00 11.7 7 Noroeste 14 Noroeste 0 -- -- 70
2020-03-22 19:00:00 13.8 13 Noroeste 19 Noroeste 0 -- -- 55
2020-03-22 18:00:00 14.8 10 Noroeste 13 Noroeste 0 -- -- 54
2020-03-22 17:00:00 13.2 5 Nordeste 15 Nordeste 0.2 -- -- 59
2020-03-22 16:00:00 13.9 5 Noroeste 12 Norte 0 -- -- 57
2020-03-22 15:00:00 13.7 5 Este 19 Noroeste 0 -- -- 58
2020-03-22 14:00:00 13.8 8 Norte 18 Este 0 -- -- 63
2020-03-22 13:00:00 13.3 8 Nordeste 29 Sudeste 0 -- -- 59
2020-03-22 12:00:00 12.4 6 Este 17 Nordeste 0 -- -- 63
2020-03-22 11:00:00 11.7 6 Este 17 Nordeste 0 -- -- 71
2020-03-22 10:00:00 8.8 5 Norte 12 Nordeste 0 -- -- 84
2020-03-22 09:00:00 7.4 5 Este 12 Este 0 -- -- 94
2020-03-22 08:00:00 6.4 0 Calma 3 Este 0 -- -- 96
2020-03-22 07:00:00 6.6 0 Calma 4 Sudeste 0 -- -- 95
2020-03-22 06:00:00 7.3 3 Sur 8 Sudeste 0 -- -- 93
2020-03-22 05:00:00 7.3 3 Sudeste 11 Sudeste 0.2 -- -- 94
2020-03-22 04:00:00 7.6 5 Sudeste 9 Sudeste 0.2 -- -- 94
2020-03-22 03:00:00 7.7 4 Sur 6 Sudeste 0 -- -- 94
2020-03-22 02:00:00 7.7 5 Sudeste 10 Sudeste 0 -- -- 92
2020-03-22 01:00:00 7.8 4 Sudeste 15 Sur 0 -- -- 91
2020-03-22 00:00:00 7.7 9 Sur 14 Sur 0 -- -- 93
2020-03-21 23:00:00 7.7 5 Sudeste 8 Sudeste 0.2 -- -- 94
2020-03-21 22:00:00 7.8 3 Sur 7 Sudeste 1 -- -- 93
2020-03-21 21:00:00 7.9 6 Sur 18 Sudeste 0.2 -- -- 91
2020-03-21 20:00:00 8.1 13 Sudeste 25 Sudeste 0 -- -- 87
2020-03-21 19:00:00 9.5 13 Sudeste 26 Sudeste 0 -- -- 79
2020-03-21 18:00:00 9.7 14 Sudeste 27 Sudeste 0 -- -- 80
2020-03-21 17:00:00 10.1 14 Sudeste 26 Sur 0.2 -- -- 79
2020-03-21 16:00:00 10.1 19 Sudeste 35 Sudeste 0 -- -- 80
2020-03-21 15:00:00 11.2 20 Sudeste 45 Sudeste 0.4 -- -- 80
2020-03-21 14:00:00 13 17 Sudeste 30 Sudeste 0 -- -- 64
2020-03-21 13:00:00 12.8 21 Sudeste 31 Sudeste 0 -- -- 62
2020-03-21 12:00:00 12.6 16 Sur 27 Sur 0 -- -- 61
2020-03-21 11:00:00 11.9 13 Sur 26 Sur 0 -- -- 70
2020-03-21 10:00:00 10.3 14 Sudeste 28 Sur 0 -- -- 78
2020-03-21 09:00:00 8.7 13 Sur 20 Sudeste 0 -- -- 85
2020-03-21 08:00:00 7.4 7 Sudeste 14 Sudoeste 0 -- -- 91
2020-03-21 07:00:00 7.6 8 Sudoeste 19 Sur 0 -- -- 92
2020-03-21 06:00:00 7.9 8 Sudeste 22 Sudeste 0 -- -- 91
2020-03-21 05:00:00 8.3 5 Sudeste 18 Oeste 0 -- -- 92
2020-03-21 04:00:00 8.7 7 Sudoeste 17 Sudoeste 0 -- -- 94
2020-03-21 03:00:00 9.1 3 Sudoeste 10 Oeste 2 -- -- 97
2020-03-21 02:00:00 9.2 4 Noroeste 17 Sur 5.6 -- -- 97
2020-03-21 01:00:00 9.4 6 Noroeste 10 Noroeste 5.6 -- -- 98
2020-03-21 00:00:00 9.4 4 Noroeste 9 Noroeste 7.2 -- -- 97
2020-03-20 23:00:00 9.6 4 Oeste 14 Noroeste 3.8 -- -- 97
2020-03-20 22:00:00 9.7 9 Noroeste 28 Noroeste 10.6 -- -- 96
2020-03-20 21:00:00 12.1 8 Noroeste 14 Noroeste 0 -- -- 96
2020-03-20 20:00:00 12.5 4 Noroeste 5 Noroeste 0 -- -- 93
2020-03-20 19:00:00 13.3 3 Noroeste 4 Noroeste 0 -- -- 91
2020-03-20 18:00:00 13.7 3 Sur 9 Sur 0 -- -- 86
2020-03-20 17:00:00 13.4 6 Sudeste 36 Sur 0.4 -- -- 86
2020-03-20 16:00:00 13.6 4 Sudeste 29 Sur 1.2 -- -- 87
2020-03-20 15:00:00 15.4 14 Sudeste 24 Sudeste 0 -- -- 70
2020-03-20 14:00:00 15.5 11 Sudeste 19 Sudeste 0 -- -- 69
2020-03-20 13:00:00 14.1 9 Sur 16 Sudeste 0 -- -- 77
2020-03-20 12:00:00 14 8 Sudeste 14 Sudeste 0 -- -- 78
2020-03-20 11:00:00 13.6 9 Sur 15 Sur 0 -- -- 80
2020-03-20 10:00:00 12.5 6 Sur 8 Sudeste 0 -- -- 84
2020-03-20 09:00:00 11.9 6 Sur 9 Sur 0 -- -- 87
2020-03-20 08:00:00 11.3 5 Sudeste 14 Sudeste 0 -- -- 89
2020-03-20 07:00:00 11.6 7 Sudeste 13 Sudeste 0 -- -- 85
2020-03-20 06:00:00 11.8 5 Sudeste 14 Sudeste 0 -- -- 84
2020-03-20 05:00:00 12.4 8 Sudeste 13 Sudeste 0 -- -- 82
2020-03-20 04:00:00 12.7 8 Sudeste 14 Sudeste 0 -- -- 81
2020-03-20 03:00:00 12.3 5 Sudeste 10 Sudeste 0 -- -- 83
2020-03-20 02:00:00 13.2 6 Sudeste 10 Sudeste 0 -- -- 78
2020-03-20 01:00:00 12.2 8 Sudeste 12 Sur 0 -- -- 82
2020-03-20 00:00:00 12.7 7 Sudeste 10 Sudeste 0 -- -- 79
2020-03-19 23:00:00 13.4 4 Sudeste 12 Sudeste 0 -- -- 76
2020-03-19 22:00:00 15 6 Sudeste 10 Sur 0 -- -- 68
2020-03-19 21:00:00 14.6 5 Sudeste 7 Sudeste 0 -- -- 74
2020-03-19 20:00:00 16.1 3 Sudeste 4 Este 0 -- -- 67
2020-03-19 19:00:00 17.8 4 Sudeste 11 Sur 0 -- -- 58
2020-03-19 18:00:00 18.8 9 Sudeste 17 Sudeste 0 -- -- 50
2020-03-19 17:00:00 19.4 10 Sudeste 18 Sudeste 0 -- -- 47
2020-03-19 16:00:00 19.6 9 Sur 17 Sudeste 0 -- -- 49
2020-03-19 15:00:00 19.3 8 Sudeste 19 Sudeste 0 -- -- 49
2020-03-19 14:00:00 18.5 9 Sur 15 Este 0 -- -- 52
2020-03-19 13:00:00 19.1 7 Nordeste 18 Sudeste 0 -- -- 51
2020-03-19 12:00:00 17.8 10 Este 21 Este 0 -- -- 54
2020-03-19 11:00:00 16.6 12 Este 22 Este 0 -- -- 59
2020-03-19 10:00:00 13.3 3 Sudoeste 9 Sur 0 -- -- 73
2020-03-19 09:00:00 7.9 2 Este 6 Sudeste 0 -- -- 95
2020-03-19 08:00:00 6.2 5 Sudeste 8 Sudeste 0 -- -- 95
2020-03-19 07:00:00 5.8 4 Sur 6 Sudeste 0 -- -- 93
2020-03-19 06:00:00 7 0 Calma 12 Sudeste 0 -- -- 90
2020-03-19 05:00:00 7.9 5 Sudeste 10 Sudeste 0 -- -- 89
2020-03-19 04:00:00 8.2 6 Sudeste 10 Sur 0 -- -- 87
2020-03-19 03:00:00 9.8 5 Sudeste 12 Sur 0 -- -- 83
2020-03-19 02:00:00 9.2 0 Calma 5 Este 0 -- -- 85
2020-03-19 01:00:00 11.2 4 Sudeste 15 Sudeste 0 -- -- 77
2020-03-19 00:00:00 11.8 10 Sur 14 Sur 0 -- -- 76
2020-03-18 23:00:00 12.1 3 Sur 8 Nordeste 0 -- -- 77
2020-03-18 22:00:00 14.6 3 Sur 9 Este 0 -- -- 66
2020-03-18 21:00:00 16.2 3 Nordeste 21 Norte 0 -- -- 60
2020-03-18 20:00:00 18 13 Nordeste 26 Nordeste 0 -- -- 54
2020-03-18 19:00:00 19.9 4 Nordeste 16 Nordeste 0 -- -- 49
2020-03-18 18:00:00 20.8 10 Nordeste 28 Nordeste 0 -- -- 45
2020-03-18 17:00:00 21.5 10 Este 26 Nordeste 0 -- -- 43
2020-03-18 16:00:00 20.8 12 Nordeste 28 Este 0 -- -- 47
2020-03-18 15:00:00 20.2 12 Este 26 Este 0 -- -- 48
2020-03-18 14:00:00 19.1 13 Este 33 Sudeste 0 -- -- 50
2020-03-18 13:00:00 18.7 15 Este 30 Este 0 -- -- 52
2020-03-18 12:00:00 17.7 14 Este 30 Este 0 -- -- 54
2020-03-18 11:00:00 15.2 11 Este 26 Este 0 -- -- 64
2020-03-18 10:00:00 12.7 10 Este 21 Este 0 -- -- 74
2020-03-18 09:00:00 11.6 8 Este 19 Este 0 -- -- 77
2020-03-18 08:00:00 10.1 4 Norte 19 Nordeste 0 -- -- 82
2020-03-18 07:00:00 9 2 Sur 8 Oeste 0 -- -- 90
2020-03-18 06:00:00 10.4 5 Noroeste 13 Norte 0 -- -- 85
2020-03-18 05:00:00 8.9 7 Noroeste 13 Noroeste 0 -- -- 93
2020-03-18 04:00:00 9 11 Noroeste 14 Noroeste 0 -- -- 91
2020-03-18 03:00:00 11 3 Sur 12 Sudeste 0 -- -- 86
2020-03-18 02:00:00 8.9 3 Noroeste 10 Oeste 0 -- -- 83
2020-03-18 01:00:00 8.8 2 Sudoeste 14 Noroeste 0 -- -- 77
2020-03-18 00:00:00 8.9 9 Noroeste 15 Norte 0 -- -- 74
2020-03-17 23:00:00 9 7 Noroeste 11 Noroeste 0 -- -- 73
2020-03-17 22:00:00 10.6 5 Noroeste 10 Noroeste 0 -- -- 66
2020-03-17 21:00:00 10.8 2 Sur 6 Sudeste 0 -- -- 71
2020-03-17 20:00:00 14.5 3 Sudeste 18 Este 0 -- -- 46
2020-03-17 19:00:00 15.9 14 Este 38 Este 0 -- -- 39
2020-03-17 18:00:00 16.6 15 Este 30 Este 0 -- -- 39
2020-03-17 17:00:00 16.5 13 Sudeste 30 Sudeste 0 -- -- 33
2020-03-17 16:00:00 15.4 17 Sudeste 32 Este 0 -- -- 41
2020-03-17 15:00:00 15 17 Este 36 Sudeste 0 -- -- 48
2020-03-17 14:00:00 14.2 22 Sudeste 40 Sudeste 0 -- -- 50
2020-03-17 13:00:00 13.8 23 Sudeste 44 Sudeste 0 -- -- 53
2020-03-17 12:00:00 11.6 22 Este 42 Este 0 -- -- 63
2020-03-17 11:00:00 10.4 23 Sudeste 42 Sudeste 0 -- -- 70
2020-03-17 10:00:00 7.5 17 Este 33 Este 0 -- -- 82
2020-03-17 09:00:00 6.3 9 Este 17 Este 0 -- -- 88
2020-03-17 08:00:00 5.5 6 Este 13 Sudeste 0 -- -- 91
2020-03-17 07:00:00 5.3 4 Este 23 Este 0.6 -- -- 90
2020-03-17 06:00:00 5.1 2 Noroeste 19 Este 0 -- -- 90
2020-03-17 05:00:00 5.4 9 Este 15 Norte 0 -- -- 90
2020-03-17 04:00:00 4.9 5 Norte 14 Noroeste 0.8 -- -- 93
2020-03-17 03:00:00 5 10 Noroeste 13 Noroeste 0 -- -- 93
2020-03-17 02:00:00 4.8 7 Noroeste 12 Noroeste 0 -- -- 94
2020-03-17 01:00:00 4.6 9 Noroeste 13 Noroeste 0 -- -- 94
2020-03-17 00:00:00 4.8 4 Noroeste 23 Norte 0 -- -- 92
2020-03-16 23:00:00 6.2 12 Norte 22 Norte 0 -- -- 90
2020-03-16 22:00:00 6.8 12 Norte 25 Noroeste 1.8 -- -- 91
2020-03-16 21:00:00 6.8 16 Noroeste 40 Noroeste 1 -- -- 90
2020-03-16 20:00:00 7 18 Noroeste 30 Noroeste 0.2 -- -- 85
2020-03-16 19:00:00 6.9 22 Noroeste 50 Norte 0.6 -- -- 86
2020-03-16 18:00:00 8.8 31 Noroeste 50 Noroeste 0.2 -- -- 65
2020-03-16 17:00:00 7.7 28 Noroeste 56 Noroeste 0.4 -- -- 77
2020-03-16 16:00:00 10 29 Noroeste 56 Noroeste 0 -- -- 58
2020-03-16 15:00:00 10.9 36 Noroeste 54 Norte 0 -- -- 50
2020-03-16 14:00:00 11.8 36 Noroeste 54 Noroeste 0 -- -- 47
2020-03-16 13:00:00 10.2 28 Noroeste 41 Noroeste 0 -- -- 51
2020-03-16 12:00:00 9.9 27 Noroeste 46 Noroeste 0 -- -- 55
2020-03-16 11:00:00 8.7 30 Noroeste 43 Noroeste 0 -- -- 58
2020-03-16 10:00:00 7.5 25 Noroeste 39 Noroeste 0 -- -- 61
2020-03-16 09:00:00 6.2 19 Noroeste 33 Noroeste 0 -- -- 67
2020-03-16 08:00:00 4.8 21 Noroeste 34 Noroeste 0 -- -- 74
2020-03-16 07:00:00 4.4 15 Noroeste 30 Oeste 0 -- -- 78
2020-03-16 06:00:00 4.8 19 Noroeste 30 Noroeste 0 -- -- 75
2020-03-16 05:00:00 4.5 15 Noroeste 26 Oeste 0 -- -- 75
2020-03-16 04:00:00 4.8 17 Noroeste 26 Noroeste 0 -- -- 72
2020-03-16 03:00:00 3.9 2 Sudeste 12 Noroeste 0 -- -- 78
2020-03-16 02:00:00 5.5 11 Noroeste 21 Noroeste 0 -- -- 72
2020-03-16 01:00:00 6.6 13 Noroeste 32 Noroeste 0 -- -- 74
2020-03-16 00:00:00 8.8 20 Noroeste 41 Noroeste 0 -- -- 62
2020-03-15 23:00:00 9.9 26 Noroeste 41 Noroeste 0 -- -- 73
2020-03-15 22:00:00 11.4 30 Noroeste 45 Noroeste 0 -- -- 72
2020-03-15 21:00:00 14.4 18 Noroeste 29 Noroeste 0 -- -- 64
2020-03-15 20:00:00 15 19 Noroeste 31 Noroeste 0 -- -- 72
2020-03-15 19:00:00 16.7 18 Noroeste 31 Sudoeste 0 -- -- 67
2020-03-15 18:00:00 19.6 11 Oeste 37 Sudoeste 0 -- -- 55
2020-03-15 17:00:00 20.7 19 Oeste 35 Oeste 0 -- -- 51
2020-03-15 16:00:00 21.3 15 Oeste 33 Oeste 0 -- -- 47
2020-03-15 15:00:00 21.8 12 Oeste 31 Oeste 0 -- -- 47
2020-03-15 14:00:00 21.7 13 Sur 28 Oeste 0 -- -- 51
2020-03-15 13:00:00 20.5 11 Sudoeste 23 Sudoeste 0 -- -- 57
2020-03-15 12:00:00 19.3 9 Oeste 20 Sur 0 -- -- 60
2020-03-15 11:00:00 18.8 8 Sudoeste 20 Oeste 0 -- -- 63
2020-03-15 10:00:00 16.4 11 Sudeste 18 Sudeste 0 -- -- 72
2020-03-15 09:00:00 12.7 10 Sudeste 15 Sudeste 0 -- -- 81
2020-03-15 08:00:00 9.6 8 Sur 12 Sur 0 -- -- 90
2020-03-15 07:00:00 9 10 Sur 15 Sur 0 -- -- 87
2020-03-15 06:00:00 9.2 9 Sur 15 Sur 0 -- -- 87
2020-03-15 05:00:00 9.4 9 Sur 13 Sur 0 -- -- 86
2020-03-15 04:00:00 9.9 8 Sur 10 Sur 0 -- -- 86
2020-03-15 03:00:00 10.1 6 Sur 12 Sur 0 -- -- 84
2020-03-15 02:00:00 11 9 Sur 12 Sur 0 -- -- 81
2020-03-15 01:00:00 11.9 6 Sur 15 Sur 0 -- -- 78
2020-03-15 00:00:00 13 7 Sudeste 9 Sudeste 0 -- -- 77
2020-03-14 23:00:00 14.6 5 Sudeste 6 Sudeste 0 -- -- 74
2020-03-14 22:00:00 15.2 4 Sudeste 6 Sur 0 -- -- 70
2020-03-14 21:00:00 16.8 3 Noroeste 9 Noroeste 0 -- -- 61
2020-03-14 20:00:00 18 6 Noroeste 18 Noroeste 0 -- -- 57
2020-03-14 19:00:00 20.6 14 Noroeste 30 Noroeste 0 -- -- 48
2020-03-14 18:00:00 22.3 17 Noroeste 24 Noroeste 0 -- -- 47
2020-03-14 17:00:00 23.5 7 Noroeste 21 Noroeste 0 -- -- 46
2020-03-14 16:00:00 23.8 7 Oeste 14 Oeste 0 -- -- 43
2020-03-14 15:00:00 22.2 4 Oeste 14 Oeste 0 -- -- 49
2020-03-14 14:00:00 22.5 8 Norte 20 Noroeste 0 -- -- 49
2020-03-14 13:00:00 21.7 4 Nordeste 14 Sur 0 -- -- 54
2020-03-14 12:00:00 20 9 Sur 17 Sur 0 -- -- 63
2020-03-14 11:00:00 17.9 7 Sudeste 12 Sudeste 0 -- -- 69
2020-03-14 10:00:00 14.8 5 Sur 9 Sudeste 0 -- -- 82
2020-03-14 09:00:00 10.1 6 Sudeste 8 Sur 0 -- -- 94
2020-03-14 08:00:00 7.6 0 Calma 13 Sur 0 -- -- 96
2020-03-14 07:00:00 7.6 8 Sur 12 Sur 0 -- -- 96
2020-03-14 06:00:00 7.6 7 Sur 11 Sur 0 -- -- 95
2020-03-14 05:00:00 8 8 Sur 9 Sur 0 -- -- 96
2020-03-14 04:00:00 8.1 8 Sur 11 Sur 0 -- -- 95
2020-03-14 03:00:00 8.1 6 Sudeste 9 Sur 0 -- -- 95
2020-03-14 02:00:00 8 5 Sudeste 10 Sudeste 0 -- -- 93
2020-03-14 01:00:00 9.1 8 Sur 10 Sudeste 0 -- -- 93
2020-03-14 00:00:00 9.2 6 Sudeste 9 Sudeste 0 -- -- 93
2020-03-13 23:00:00 9.6 4 Sudeste 8 Sur 0 -- -- 91
2020-03-13 22:00:00 10.7 2 Sudeste 5 Sur 0 -- -- 88
2020-03-13 21:00:00 12.4 2 Sudeste 5 Noroeste 0 -- -- 84
2020-03-13 20:00:00 14.2 4 Noroeste 10 Noroeste 0 -- -- 79
2020-03-13 19:00:00 16.8 7 Noroeste 16 Noroeste 0 -- -- 73
2020-03-13 18:00:00 18.9 13 Noroeste 22 Noroeste 0 -- -- 66
2020-03-13 17:00:00 20.2 12 Noroeste 22 Noroeste 0 -- -- 61
2020-03-13 16:00:00 20.4 17 Noroeste 23 Noroeste 0 -- -- 60
2020-03-13 15:00:00 20.3 8 Noroeste 16 Noroeste 0 -- -- 62
2020-03-13 14:00:00 18.7 8 Norte 17 Noroeste 0 -- -- 66
2020-03-13 13:00:00 17.2 10 Noroeste 16 Noroeste 0 -- -- 70
2020-03-13 12:00:00 16.2 7 Sudeste 14 Este 0 -- -- 69
2020-03-13 11:00:00 13.8 4 Noroeste 8 Noroeste 0 -- -- 86
2020-03-13 10:00:00 11.1 5 Noroeste 10 Noroeste 0 -- -- 97
2020-03-13 09:00:00 10.8 5 Nordeste 11 Nordeste 0 -- -- 97
2020-03-13 08:00:00 10.1 5 Este 15 Sudeste 0 -- -- 97
2020-03-13 07:00:00 10.8 12 Sudeste 16 Sur 0 -- -- 95
2020-03-13 06:00:00 10.5 9 Sur 14 Este 0 -- -- 92
2020-03-13 05:00:00 9.5 3 Sur 9 Sur 0 -- -- 93
2020-03-13 04:00:00 9.2 6 Sur 10 Sur 0 -- -- 90
2020-03-13 03:00:00 9.8 6 Sur 9 Sur 0 -- -- 87
2020-03-13 02:00:00 9.9 6 Sur 11 Sur 0 -- -- 86
2020-03-13 01:00:00 10.9 8 Sur 10 Sur 0 -- -- 85
2020-03-13 00:00:00 11 7 Sur 9 Sudeste 0 -- -- 86
2020-03-12 23:00:00 11.4 9 Sudeste 12 Sudeste 0 -- -- 84
2020-03-12 22:00:00 12.3 5 Sudeste 9 Sudeste 0 -- -- 81
2020-03-12 21:00:00 14.1 4 Sudeste 8 Sudeste 0 -- -- 75
2020-03-12 20:00:00 17.8 2 Sudeste 9 Oeste 0 -- -- 61
2020-03-12 19:00:00 21.3 4 Sur 13 Sudeste 0 -- -- 47
2020-03-12 18:00:00 22.8 5 Sur 14 Sudoeste 0 -- -- 42
2020-03-12 17:00:00 23 4 Sudoeste 24 Oeste 0 -- -- 40
2020-03-12 16:00:00 22.4 13 Oeste 30 Sur 0 -- -- 44
2020-03-12 15:00:00 25.1 20 Sur 39 Sur 0 -- -- 35
2020-03-12 14:00:00 24.2 11 Sur 23 Sudoeste 0 -- -- 37
2020-03-12 13:00:00 21.9 12 Sur 22 Sur 0 -- -- 39
2020-03-12 12:00:00 21.4 12 Sur 18 Sur 0 -- -- 43
2020-03-12 11:00:00 19.7 9 Sudeste 13 Sudeste 0 -- -- 48
2020-03-12 10:00:00 16.1 6 Sudeste 10 Sudeste 0 -- -- 59
2020-03-12 09:00:00 12 8 Sudeste 13 Sudeste 0 -- -- 72
2020-03-12 08:00:00 10.3 9 Sudeste 14 Sudeste 0 -- -- 76
2020-03-12 07:00:00 11.1 12 Sudeste 19 Sudeste 0 -- -- 72
2020-03-12 06:00:00 10.1 11 Sudeste 14 Sudeste 0 -- -- 77
2020-03-12 05:00:00 11.3 7 Sudeste 11 Sudeste 0 -- -- 71
2020-03-12 04:00:00 15.1 5 Sur 12 Este 0 -- -- 56
2020-03-12 03:00:00 14.9 6 Sudeste 11 Sudeste 0 -- -- 59
2020-03-12 02:00:00 13.2 5 Sudeste 8 Sudeste 0 -- -- 65
2020-03-12 01:00:00 12.3 6 Sur 13 Sur 0 -- -- 71
2020-03-12 00:00:00 12.4 5 Sur 10 Sur 0 -- -- 72
2020-03-11 23:00:00 13.7 8 Sur 12 Sur 0 -- -- 67
2020-03-11 22:00:00 14.4 8 Sudeste 16 Sudeste 0 -- -- 66
2020-03-11 21:00:00 17.5 8 Sudeste 11 Sudeste 0 -- -- 55
2020-03-11 20:00:00 19.7 6 Sudeste 10 Sur 0 -- -- 53
2020-03-11 19:00:00 24.3 6 Sur 14 Sudeste 0 -- -- 39
2020-03-11 18:00:00 27.2 9 Sudeste 21 Sudeste 0 -- -- 31
2020-03-11 17:00:00 27.4 12 Sudeste 18 Sur 0 -- -- 30
2020-03-11 16:00:00 27.4 10 Sudeste 21 Sudeste 0 -- -- 31
2020-03-11 15:00:00 27.3 13 Sudeste 28 Sudeste 0 -- -- 30
2020-03-11 14:00:00 27.9 16 Sudeste 29 Sudeste 0 -- -- 28
2020-03-11 13:00:00 26.5 15 Sudeste 30 Sudeste 0 -- -- 30
2020-03-11 12:00:00 25 15 Sudeste 26 Sudeste 0 -- -- 36
2020-03-11 11:00:00 23.1 14 Sudeste 23 Sudeste 0 -- -- 42
2020-03-11 10:00:00 18.6 7 Sudeste 13 Sur 0 -- -- 53
2020-03-11 09:00:00 12.7 11 Sudeste 16 Sudeste 0 -- -- 69
2020-03-11 08:00:00 8.1 12 Sudeste 14 Sudeste 0 -- -- 83
2020-03-11 07:00:00 8.2 10 Sudeste 17 Sudeste 0 -- -- 82
2020-03-11 06:00:00 8.7 11 Sudeste 13 Sur 0 -- -- 80
2020-03-11 05:00:00 8.6 6 Sur 12 Sur 0 -- -- 82
2020-03-11 04:00:00 9.4 8 Sudeste 16 Sudeste 0 -- -- 77
2020-03-11 03:00:00 8.8 7 Sudeste 12 Sudeste 0 -- -- 80
2020-03-11 02:00:00 9.4 7 Sudeste 12 Sudeste 0 -- -- 78
2020-03-11 01:00:00 9.8 7 Sudeste 10 Sudeste 0 -- -- 78
2020-03-11 00:00:00 10.5 7 Sudeste 8 Sudeste 0 -- -- 76
2020-03-10 23:00:00 11.1 5 Sudeste 8 Sur 0 -- -- 76
2020-03-10 22:00:00 12.3 5 Sudeste 6 Sur 0 -- -- 73
2020-03-10 21:00:00 14.3 3 Sudeste 4 Sudeste 0 -- -- 67
2020-03-10 20:00:00 17.9 0 Calma 6 Sudeste 0 -- -- 55
2020-03-10 19:00:00 23.2 3 Sudeste 8 Oeste 0 -- -- 39
2020-03-10 18:00:00 26.5 5 Oeste 12 Norte 0 -- -- 30
2020-03-10 17:00:00 27 6 Noroeste 17 Nordeste 0 -- -- 31
2020-03-10 16:00:00 26.8 6 Oeste 13 Sudoeste 0 -- -- 29
2020-03-10 15:00:00 26 4 Norte 11 Oeste 0 -- -- 31
2020-03-10 14:00:00 25.3 5 Sur 12 Nordeste 0 -- -- 31
2020-03-10 13:00:00 23.7 5 Sudeste 17 Este 0 -- -- 32
2020-03-10 12:00:00 21.6 8 Sudeste 15 Sudeste 0 -- -- 35
2020-03-10 11:00:00 18.2 9 Sur 15 Sudeste 0 -- -- 45
2020-03-10 10:00:00 13.8 10 Sudeste 15 Sur 0 -- -- 58
2020-03-10 09:00:00 8.1 4 Sudeste 12 Sudeste 0 -- -- 82
2020-03-10 08:00:00 4 6 Sudeste 8 Sudeste 0 -- -- 90
2020-03-10 07:00:00 4.4 5 Sudeste 10 Sudeste 0 -- -- 90
2020-03-10 06:00:00 4.5 6 Sudeste 10 Sudeste 0 -- -- 90
2020-03-10 05:00:00 5.5 6 Sudeste 13 Sur 0 -- -- 88
2020-03-10 04:00:00 5.8 7 Sudeste 13 Sur 0 -- -- 89
2020-03-10 03:00:00 6.2 8 Sudeste 11 Sudeste 0 -- -- 89
2020-03-10 02:00:00 6.3 3 Sur 8 Sudeste 0 -- -- 87
2020-03-10 01:00:00 6.8 2 Oeste 6 Sudeste 0 -- -- 84
2020-03-10 00:00:00 7.9 4 Sudeste 8 Sur 0 -- -- 79
2020-03-09 23:00:00 8.6 3 Sudeste 8 Sudeste 0 -- -- 73
2020-03-09 22:00:00 9.3 5 Sur 9 Sur 0 -- -- 69
2020-03-09 21:00:00 11.4 2 Sudeste 6 Noroeste 0 -- -- 57
2020-03-09 20:00:00 14.3 5 Noroeste 16 Noroeste 0 -- -- 46
2020-03-09 19:00:00 17.5 12 Noroeste 35 Noroeste 0 -- -- 33
2020-03-09 18:00:00 19.6 23 Noroeste 39 Noroeste 0 -- -- 28
2020-03-09 17:00:00 20.5 19 Noroeste 35 Noroeste 0 -- -- 30
2020-03-09 16:00:00 19.9 19 Noroeste 38 Noroeste 0 -- -- 32
2020-03-09 15:00:00 19.5 22 Noroeste 34 Noroeste 0 -- -- 30
2020-03-09 14:00:00 18.2 18 Noroeste 30 Noroeste 0 -- -- 41
2020-03-09 13:00:00 16.7 17 Noroeste 25 Noroeste 0 -- -- 48
2020-03-09 12:00:00 14.9 15 Norte 23 Noroeste 0 -- -- 56
2020-03-09 11:00:00 10.8 11 Noroeste 15 Noroeste 0 -- -- 93
2020-03-09 10:00:00 7.9 5 Noroeste 7 Oeste 0 -- -- 98
2020-03-09 09:00:00 6.7 3 Sudeste 6 Sudeste 0 -- -- 98
2020-03-09 08:00:00 6.6 2 Sur 5 Sudeste 0 -- -- 98
2020-03-09 07:00:00 6.5 0 Calma 6 Sur 0 -- -- 98
2020-03-09 06:00:00 5.5 2 Sudeste 7 Sudeste 0 -- -- 97
2020-03-09 05:00:00 4.1 3 Sudeste 7 Sudeste 0 -- -- 96
2020-03-09 04:00:00 4.2 6 Sudeste 8 Sudeste 0 -- -- 95
2020-03-09 03:00:00 5.1 5 Sudeste 9 Sudeste 0 -- -- 95
2020-03-09 02:00:00 5.3 5 Sur 8 Sudeste 0 -- -- 94
2020-03-09 01:00:00 5.8 3 Sudeste 6 Sudeste 0 -- -- 91
2020-03-09 00:00:00 6.4 0 Calma 5 Noroeste 0 -- -- 87
2020-03-08 23:00:00 8.7 0 Calma 8 Noroeste 0 -- -- 79
2020-03-08 22:00:00 10 7 Noroeste 17 Noroeste 0 -- -- 77
2020-03-08 21:00:00 10.5 9 Noroeste 15 Noroeste 0 -- -- 76
2020-03-08 20:00:00 12 8 Noroeste 16 Noroeste 0 -- -- 65
2020-03-08 19:00:00 15.1 10 Noroeste 22 Noroeste 0 -- -- 53
2020-03-08 18:00:00 16.5 17 Noroeste 29 Noroeste 0 -- -- 44
2020-03-08 17:00:00 18.5 18 Noroeste 27 Noroeste 0 -- -- 38
2020-03-08 16:00:00 19.4 16 Noroeste 24 Norte 0 -- -- 39
2020-03-08 15:00:00 19.8 5 Norte 11 Norte 0 -- -- 43
2020-03-08 14:00:00 19 4 Este 10 Sudeste 0 -- -- 42
2020-03-08 13:00:00 17 5 Norte 11 Nordeste 0 -- -- 47
2020-03-08 12:00:00 14.9 4 Norte 12 Noroeste 0 -- -- 53
2020-03-08 11:00:00 13.1 4 Noroeste 10 Noroeste 0 -- -- 60
2020-03-08 10:00:00 9.6 6 Sudeste 13 Sur 0 -- -- 70
2020-03-08 09:00:00 4.5 9 Sur 13 Sur 0 -- -- 81
2020-03-08 08:00:00 1 7 Sur 15 Sur 0 -- -- 89
2020-03-08 07:00:00 1.1 9 Sudeste 12 Sudeste 0 -- -- 90
2020-03-08 06:00:00 1.9 8 Sur 13 Sur 0 -- -- 88
2020-03-08 05:00:00 1.3 7 Sudeste 10 Sur 0 -- -- 89
2020-03-08 04:00:00 1.9 7 Sudeste 11 Sur 0 -- -- 88
2020-03-08 03:00:00 3.7 8 Sur 12 Sudeste 0 -- -- 83
2020-03-08 02:00:00 3.6 9 Sur 13 Sur 0 -- -- 82
2020-03-08 01:00:00 4 8 Sur 11 Sur 0 -- -- 84
2020-03-08 00:00:00 3.9 7 Sudeste 9 Sudeste 0 -- -- 84
2020-03-07 23:00:00 4.7 7 Sudeste 9 Sudeste 0 -- -- 81
2020-03-07 22:00:00 5.5 5 Sudeste 8 Sudeste 0 -- -- 79
2020-03-07 21:00:00 8.1 3 Sudeste 6 Sudeste 0 -- -- 69
2020-03-07 20:00:00 12.3 6 Norte 14 Norte 0 -- -- 52
2020-03-07 19:00:00 14.5 8 Noroeste 21 Noroeste 0 -- -- 44
2020-03-07 18:00:00 17.9 9 Oeste 18 Noroeste 0 -- -- 37
2020-03-07 17:00:00 18.5 10 Noroeste 20 Noroeste 0 -- -- 34
2020-03-07 16:00:00 18.4 9 Norte 17 Norte 0 -- -- 35
2020-03-07 15:00:00 17.8 5 Nordeste 19 Sudoeste 0 -- -- 36
2020-03-07 14:00:00 16.3 7 Este 20 Sudeste 0 -- -- 38
2020-03-07 13:00:00 15.7 14 Sudeste 21 Sudeste 0 -- -- 36
2020-03-07 12:00:00 12.8 7 Nordeste 17 Nordeste 0 -- -- 44
2020-03-07 11:00:00 10.3 5 Noroeste 10 Noroeste 0 -- -- 60
2020-03-07 10:00:00 8 4 Noroeste 7 Norte 0 -- -- 71
2020-03-07 09:00:00 4.1 3 Sur 6 Sudeste 0 -- -- 94
2020-03-07 08:00:00 1.9 0 Calma 5 Noroeste 0 -- -- 93
2020-03-07 07:00:00 3.1 3 Norte 9 Noroeste 0 -- -- 91
2020-03-07 06:00:00 3.1 3 Norte 9 Oeste 0 -- -- 91
2020-03-07 05:00:00 3.4 4 Noroeste 11 Noroeste 0 -- -- 88
2020-03-07 04:00:00 4.4 9 Noroeste 15 Noroeste 0 -- -- 87
2020-03-07 03:00:00 5.3 10 Noroeste 22 Norte 0 -- -- 84
2020-03-07 02:00:00 6.3 21 Noroeste 27 Noroeste 0 -- -- 80
2020-03-07 01:00:00 6.6 14 Norte 23 Noroeste 0 -- -- 81
2020-03-07 00:00:00 7.3 13 Norte 27 Norte 0 -- -- 76
2020-03-06 23:00:00 8.4 20 Noroeste 31 Noroeste 0 -- -- 72
2020-03-06 22:00:00 9.5 24 Noroeste 35 Norte 0 -- -- 69
2020-03-06 21:00:00 10.4 18 Noroeste 31 Noroeste 0 -- -- 65
2020-03-06 20:00:00 11.3 18 Noroeste 28 Noroeste 0 -- -- 62
2020-03-06 19:00:00 12.4 17 Noroeste 35 Noroeste 0 -- -- 58
2020-03-06 18:00:00 14.3 26 Noroeste 45 Noroeste 0 -- -- 52
2020-03-06 17:00:00 15 25 Noroeste 40 Noroeste 0 -- -- 48
2020-03-06 16:00:00 15.2 26 Noroeste 49 Noroeste 0 -- -- 48
2020-03-06 15:00:00 14.6 28 Noroeste 44 Noroeste 0 -- -- 49
2020-03-06 14:00:00 13.4 26 Noroeste 44 Noroeste 0 -- -- 55
2020-03-06 13:00:00 13 27 Noroeste 42 Noroeste 0 -- -- 59
2020-03-06 12:00:00 12 26 Noroeste 41 Noroeste 0 -- -- 61
2020-03-06 11:00:00 10.9 26 Noroeste 47 Noroeste 0 -- -- 68
2020-03-06 10:00:00 10.2 29 Noroeste 47 Noroeste 0 -- -- 71
2020-03-06 09:00:00 9 22 Noroeste 42 Noroeste 0 -- -- 81
2020-03-06 08:00:00 8.8 23 Noroeste 37 Oeste 0 -- -- 85
2020-03-06 07:00:00 9.4 19 Noroeste 30 Noroeste 0 -- -- 82
2020-03-06 06:00:00 9 17 Noroeste 35 Noroeste 0 -- -- 83
2020-03-06 05:00:00 8.5 10 Oeste 34 Noroeste 0 -- -- 85
2020-03-06 04:00:00 8.2 15 Oeste 30 Oeste 0 -- -- 86
2020-03-06 03:00:00 7.7 13 Noroeste 23 Noroeste 0 -- -- 86
2020-03-06 02:00:00 7 8 Noroeste 20 Noroeste 0 -- -- 88
2020-03-06 01:00:00 7.7 12 Noroeste 27 Noroeste 0 -- -- 85
2020-03-06 00:00:00 8.4 18 Noroeste 36 Noroeste 0 -- -- 84
2020-03-05 23:00:00 9.2 17 Noroeste 35 Noroeste 0 -- -- 79
2020-03-05 22:00:00 10.2 21 Noroeste 35 Noroeste 0 -- -- 72
2020-03-05 21:00:00 11.1 24 Noroeste 39 Noroeste 0 -- -- 65
2020-03-05 20:00:00 11.9 22 Noroeste 32 Oeste 0 -- -- 67
2020-03-05 19:00:00 13.2 24 Noroeste 40 Noroeste 0 -- -- 63
2020-03-05 18:00:00 14.7 28 Noroeste 40 Oeste 0 -- -- 56
2020-03-05 17:00:00 15.7 26 Noroeste 43 Noroeste 0 -- -- 53
2020-03-05 16:00:00 15.1 28 Noroeste 46 Noroeste 0 -- -- 57
2020-03-05 15:00:00 15.1 28 Noroeste 45 Noroeste 0 -- -- 59
2020-03-05 14:00:00 14 25 Noroeste 39 Noroeste 0 -- -- 63
2020-03-05 13:00:00 13.4 26 Noroeste 42 Noroeste 0 -- -- 73
2020-03-05 12:00:00 11.8 24 Noroeste 39 Noroeste 0.6 -- -- 81
2020-03-05 11:00:00 11.8 12 Oeste 36 Oeste 0.2 -- -- 92
2020-03-05 10:00:00 12.4 12 Oeste 35 Oeste 0 -- -- 89
2020-03-05 09:00:00 11.5 9 Nordeste 20 Nordeste 0 -- -- 90
2020-03-05 08:00:00 11.3 11 Sudeste 19 Noroeste 0 -- -- 93
2020-03-05 07:00:00 11.3 6 Sudeste 22 Oeste 0 -- -- 96
2020-03-05 06:00:00 11.1 3 Este 17 Sur 0 -- -- 97
2020-03-05 05:00:00 11.4 6 Oeste 22 Sudoeste 0 -- -- 95
2020-03-05 04:00:00 12 3 Oeste 14 Sudoeste 0 -- -- 91
2020-03-05 03:00:00 12.4 4 Sudoeste 16 Oeste 0 -- -- 90
2020-03-05 02:00:00 12.2 5 Noroeste 14 Norte 0 -- -- 92
2020-03-05 01:00:00 10.7 3 Sudeste 8 Sur 0 -- -- 91
2020-03-05 00:00:00 9.6 5 Sur 8 Sudeste 0 -- -- 90